Masuei Maru No31 — JI3555 — position and weather

sailwx.info

Track history (hours):
 
Tides and Currents Weather Stations Pressure Air Temp Water Temp Dewpoint Dewpoint Depression Visibility Wind Speed Wind Dir Waves Ship Positions

Masuei Maru No31

Last reported at 2017-Nov-24 17:59 UTC. Time now 2017-Nov-24 18:26 UTC.
Position N 34°13' E 135°09'.

Length 32 m.

Type: Tug. MMSI: 431300667.

Date/timePositionNaut miles runAvg speedWind from/ knotsBaromVisibWave heightAir tempDewpointWater temp
2017-Nov-24 17:59N 34°13' E 135°09'0 0.0
2017-Nov-24 17:29N 34°13' E 135°09'0 0.0
2017-Nov-24 16:59N 34°13' E 135°09'0 0.0
2017-Nov-24 16:29N 34°13' E 135°09'0 0.0
2017-Nov-24 15:59N 34°13' E 135°09'0 0.0
2017-Nov-24 15:29N 34°13' E 135°09'0 0.0
2017-Nov-24 14:59N 34°13' E 135°09'0 0.0
2017-Nov-24 14:29N 34°13' E 135°09'0 0.0
2017-Nov-24 13:59N 34°13' E 135°09'1 1.8
2017-Nov-24 13:30N 34°12' E 135°08'1 1.7
2017-Nov-24 13:00N 34°13' E 135°09'0 0.1
2017-Nov-24 12:28N 34°13' E 135°09'0 0.0
2017-Nov-24 11:58N 34°13' E 135°09'1 1.5
2017-Nov-24 11:20N 34°12' E 135°08'1 3.1
2017-Nov-24 11:00N 34°13' E 135°08'0 0.7
2017-Nov-24 10:30N 34°13' E 135°07'1 2.8
2017-Nov-24 09:58N 34°13' E 135°09'0 0.0
2017-Nov-24 09:28N 34°13' E 135°09'3 5.5
2017-Nov-24 09:00N 34°11' E 135°07'4 3.6
2017-Nov-24 08:00N 34°08' E 135°07'0 0.9
2017-Nov-24 07:30N 34°08' E 135°07'1 0.2
2017-Nov-24 02:38N 34°08' E 135°06'5 4.1
2017-Nov-24 01:22N 34°13' E 135°07'  
2017-Nov-18 11:05N 34°13' E 135°09'0 1.5
2017-Nov-18 11:00N 34°13' E 135°09'1 1.4
2017-Nov-18 09:55N 34°14' E 135°08'0 1.1
2017-Nov-18 09:30N 34°14' E 135°07'1 2.0
2017-Nov-18 08:54N 34°15' E 135°06'1 2.0
2017-Nov-18 08:30N 34°14' E 135°06'3 5.4
2017-Nov-18 08:00N 34°13' E 135°09'0 0.0
2017-Nov-18 07:30N 34°13' E 135°09'2 3.8
2017-Nov-18 07:00N 34°12' E 135°07'1 0.0
2017-Nov-16 18:54N 34°13' E 135°07'2 4.1
2017-Nov-16 18:30N 34°13' E 135°09'0 0.0
2017-Nov-16 18:00N 34°13' E 135°09'0 0.0
2017-Nov-16 17:30N 34°13' E 135°09'0 0.0
2017-Nov-16 17:00N 34°13' E 135°09'0 0.0
2017-Nov-16 16:30N 34°13' E 135°09'0 0.0
2017-Nov-16 16:00N 34°13' E 135°09'0 0.0
2017-Nov-16 15:30N 34°13' E 135°09'0 0.0
2017-Nov-16 15:00N 34°13' E 135°09'0 0.0
2017-Nov-16 14:30N 34°13' E 135°09'0 0.0
2017-Nov-16 14:00N 34°13' E 135°09'0 0.0
2017-Nov-16 13:30N 34°13' E 135°09'0 0.0
2017-Nov-16 13:00N 34°13' E 135°09'0 0.0
2017-Nov-16 12:30N 34°13' E 135°09'0 0.0
2017-Nov-16 12:00N 34°13' E 135°09'0 0.0
2017-Nov-16 11:30N 34°13' E 135°09'0 0.0
2017-Nov-16 11:00N 34°13' E 135°09'0 0.0
2017-Nov-16 10:30N 34°13' E 135°09'0 0.0
2017-Nov-16 10:00N 34°13' E 135°09'0 0.0
2017-Nov-16 09:30N 34°13' E 135°09'0 0.0
2017-Nov-16 09:00N 34°13' E 135°09'0 0.0
2017-Nov-16 08:30N 34°13' E 135°09'0 0.0
2017-Nov-16 08:00N 34°13' E 135°09'0 0.0
2017-Nov-16 07:30N 34°13' E 135°09'0 0.0
2017-Nov-16 07:00N 34°13' E 135°09'0 0.0
2017-Nov-16 06:30N 34°13' E 135°09'0 0.0
2017-Nov-16 06:00N 34°13' E 135°09'0 0.0
2017-Nov-16 05:30N 34°13' E 135°09'0 0.0
2017-Nov-16 04:54N 34°13' E 135°09'0 0.0
2017-Nov-16 04:30N 34°13' E 135°09'0 0.0
2017-Nov-16 04:00N 34°13' E 135°09'0 0.0
2017-Nov-16 03:30N 34°13' E 135°09'0 0.0
2017-Nov-16 03:00N 34°13' E 135°09'0 0.0
2017-Nov-16 02:30N 34°13' E 135°09'0 0.0
2017-Nov-16 02:00N 34°13' E 135°09'0 0.0
2017-Nov-16 01:30N 34°13' E 135°09'0 0.0
2017-Nov-16 01:00N 34°13' E 135°09'0 0.0
2017-Nov-16 00:30N 34°13' E 135°09'0 0.0
2017-Nov-16 00:00N 34°13' E 135°09'0 0.0
2017-Nov-15 23:30N 34°13' E 135°09'0 0.0
2017-Nov-15 23:00N 34°13' E 135°09'0 0.0
2017-Nov-15 22:30N 34°13' E 135°09'0 0.0
2017-Nov-15 22:00N 34°13' E 135°09'0 0.0
2017-Nov-15 21:30N 34°13' E 135°09'0 0.0
2017-Nov-15 21:00N 34°13' E 135°09'0 0.0
2017-Nov-15 20:30N 34°13' E 135°09'0 0.0
2017-Nov-15 20:00N 34°13' E 135°09'0 0.0
2017-Nov-15 19:30N 34°13' E 135°09'0 0.0
2017-Nov-15 19:00N 34°13' E 135°09'0 0.0
2017-Nov-15 18:30N 34°13' E 135°09'0 0.0
2017-Nov-15 18:00N 34°13' E 135°09'0 0.0
2017-Nov-15 17:30N 34°13' E 135°09'0 0.0
2017-Nov-15 17:00N 34°13' E 135°09'0 0.0
2017-Nov-15 16:30N 34°13' E 135°09'0 0.0
2017-Nov-15 16:00N 34°13' E 135°09'0 0.0
2017-Nov-15 15:30N 34°13' E 135°09'0 0.0
2017-Nov-15 15:00N 34°13' E 135°09'0 0.0
2017-Nov-15 14:30N 34°13' E 135°09'0 0.0
2017-Nov-15 14:00N 34°13' E 135°09'0 0.0
2017-Nov-15 13:30N 34°13' E 135°09'0 0.0
2017-Nov-15 13:00N 34°13' E 135°09'0 0.0
2017-Nov-15 12:30N 34°13' E 135°09'0 0.0
2017-Nov-15 12:00N 34°13' E 135°09'0 0.0
2017-Nov-15 11:27N 34°13' E 135°09'0 0.0
2017-Nov-15 11:00N 34°13' E 135°09'0 0.0
2017-Nov-15 10:30N 34°13' E 135°09'0 0.0
2017-Nov-15 10:00N 34°13' E 135°09'0 0.0
2017-Nov-15 09:30N 34°13' E 135°09'0 0.0
2017-Nov-15 09:00N 34°13' E 135°09'0 0.0
2017-Nov-15 08:30N 34°13' E 135°09'0 0.0
2017-Nov-15 08:00N 34°13' E 135°09'0 0.0
2017-Nov-15 07:30N 34°13' E 135°09'0 0.0
2017-Nov-15 07:00N 34°13' E 135°09'0 0.0
2017-Nov-15 06:30N 34°13' E 135°09'0 0.0
2017-Nov-15 06:00N 34°13' E 135°09'0 0.0
2017-Nov-15 05:30N 34°13' E 135°09'0 0.0
2017-Nov-15 05:00N 34°13' E 135°09'0 0.0
2017-Nov-15 04:30N 34°13' E 135°09'0 0.0
2017-Nov-15 04:00N 34°13' E 135°09'6 2.9
2017-Nov-15 01:53N 34°07' E 135°06'4 1.3
2017-Nov-14 22:40N 34°12' E 135°07'1 8.0
2017-Nov-14 22:30N 34°13' E 135°08'  
Track history (hours):
 
Tides and Currents Weather Stations Pressure Air Temp Water Temp Dewpoint Dewpoint Depression Visibility Wind Speed Wind Dir Waves Ship Positions

Masuei Maru No31

Last reported at 2017-Nov-24 17:59 UTC. Time now 2017-Nov-24 18:26 UTC.
Position N 34°13' E 135°09'.

Length 32 m.

Type: Tug. MMSI: 431300667.

Date/timePositionNaut miles runAvg speedWind from/ knotsBaromVisibWave heightAir tempDewpointWater temp
2017-Nov-24 17:59N 34°13' E 135°09'0 0.0
2017-Nov-24 17:29N 34°13' E 135°09'0 0.0
2017-Nov-24 16:59N 34°13' E 135°09'0 0.0
2017-Nov-24 16:29N 34°13' E 135°09'0 0.0
2017-Nov-24 15:59N 34°13' E 135°09'0 0.0
2017-Nov-24 15:29N 34°13' E 135°09'0 0.0
2017-Nov-24 14:59N 34°13' E 135°09'0 0.0
2017-Nov-24 14:29N 34°13' E 135°09'0 0.0
2017-Nov-24 13:59N 34°13' E 135°09'1 1.8
2017-Nov-24 13:30N 34°12' E 135°08'1 1.7
2017-Nov-24 13:00N 34°13' E 135°09'0 0.1
2017-Nov-24 12:28N 34°13' E 135°09'0 0.0
2017-Nov-24 11:58N 34°13' E 135°09'1 1.5
2017-Nov-24 11:20N 34°12' E 135°08'1 3.1
2017-Nov-24 11:00N 34°13' E 135°08'0 0.7
2017-Nov-24 10:30N 34°13' E 135°07'1 2.8
2017-Nov-24 09:58N 34°13' E 135°09'0 0.0
2017-Nov-24 09:28N 34°13' E 135°09'3 5.5
2017-Nov-24 09:00N 34°11' E 135°07'4 3.6
2017-Nov-24 08:00N 34°08' E 135°07'0 0.9
2017-Nov-24 07:30N 34°08' E 135°07'1 0.2
2017-Nov-24 02:38N 34°08' E 135°06'5 4.1
2017-Nov-24 01:22N 34°13' E 135°07'  
2017-Nov-18 11:05N 34°13' E 135°09'0 1.5
2017-Nov-18 11:00N 34°13' E 135°09'1 1.4
2017-Nov-18 09:55N 34°14' E 135°08'0 1.1
2017-Nov-18 09:30N 34°14' E 135°07'1 2.0
2017-Nov-18 08:54N 34°15' E 135°06'1 2.0
2017-Nov-18 08:30N 34°14' E 135°06'3 5.4
2017-Nov-18 08:00N 34°13' E 135°09'0 0.0
2017-Nov-18 07:30N 34°13' E 135°09'2 3.8
2017-Nov-18 07:00N 34°12' E 135°07'1 0.0
2017-Nov-16 18:54N 34°13' E 135°07'2 4.1
2017-Nov-16 18:30N 34°13' E 135°09'0 0.0
2017-Nov-16 18:00N 34°13' E 135°09'0 0.0
2017-Nov-16 17:30N 34°13' E 135°09'0 0.0
2017-Nov-16 17:00N 34°13' E 135°09'0 0.0
2017-Nov-16 16:30N 34°13' E 135°09'0 0.0
2017-Nov-16 16:00N 34°13' E 135°09'0 0.0
2017-Nov-16 15:30N 34°13' E 135°09'0 0.0
2017-Nov-16 15:00N 34°13' E 135°09'0 0.0
2017-Nov-16 14:30N 34°13' E 135°09'0 0.0
2017-Nov-16 14:00N 34°13' E 135°09'0 0.0
2017-Nov-16 13:30N 34°13' E 135°09'0 0.0
2017-Nov-16 13:00N 34°13' E 135°09'0 0.0
2017-Nov-16 12:30N 34°13' E 135°09'0 0.0
2017-Nov-16 12:00N 34°13' E 135°09'0 0.0
2017-Nov-16 11:30N 34°13' E 135°09'0 0.0
2017-Nov-16 11:00N 34°13' E 135°09'0 0.0
2017-Nov-16 10:30N 34°13' E 135°09'0 0.0
2017-Nov-16 10:00N 34°13' E 135°09'0 0.0
2017-Nov-16 09:30N 34°13' E 135°09'0 0.0
2017-Nov-16 09:00N 34°13' E 135°09'0 0.0
2017-Nov-16 08:30N 34°13' E 135°09'0 0.0
2017-Nov-16 08:00N 34°13' E 135°09'0 0.0
2017-Nov-16 07:30N 34°13' E 135°09'0 0.0
2017-Nov-16 07:00N 34°13' E 135°09'0 0.0
2017-Nov-16 06:30N 34°13' E 135°09'0 0.0
2017-Nov-16 06:00N 34°13' E 135°09'0 0.0
2017-Nov-16 05:30N 34°13' E 135°09'0 0.0
2017-Nov-16 04:54N 34°13' E 135°09'0 0.0
2017-Nov-16 04:30N 34°13' E 135°09'0 0.0
2017-Nov-16 04:00N 34°13' E 135°09'0 0.0
2017-Nov-16 03:30N 34°13' E 135°09'0 0.0
2017-Nov-16 03:00N 34°13' E 135°09'0 0.0
2017-Nov-16 02:30N 34°13' E 135°09'0 0.0
2017-Nov-16 02:00N 34°13' E 135°09'0 0.0
2017-Nov-16 01:30N 34°13' E 135°09'0 0.0
2017-Nov-16 01:00N 34°13' E 135°09'0 0.0
2017-Nov-16 00:30N 34°13' E 135°09'0 0.0
2017-Nov-16 00:00N 34°13' E 135°09'0 0.0
2017-Nov-15 23:30N 34°13' E 135°09'0 0.0
2017-Nov-15 23:00N 34°13' E 135°09'0 0.0
2017-Nov-15 22:30N 34°13' E 135°09'0 0.0
2017-Nov-15 22:00N 34°13' E 135°09'0 0.0
2017-Nov-15 21:30N 34°13' E 135°09'0 0.0
2017-Nov-15 21:00N 34°13' E 135°09'0 0.0
2017-Nov-15 20:30N 34°13' E 135°09'0 0.0
2017-Nov-15 20:00N 34°13' E 135°09'0 0.0
2017-Nov-15 19:30N 34°13' E 135°09'0 0.0
2017-Nov-15 19:00N 34°13' E 135°09'0 0.0
2017-Nov-15 18:30N 34°13' E 135°09'0 0.0
2017-Nov-15 18:00N 34°13' E 135°09'0 0.0
2017-Nov-15 17:30N 34°13' E 135°09'0 0.0
2017-Nov-15 17:00N 34°13' E 135°09'0 0.0
2017-Nov-15 16:30N 34°13' E 135°09'0 0.0
2017-Nov-15 16:00N 34°13' E 135°09'0 0.0
2017-Nov-15 15:30N 34°13' E 135°09'0 0.0
2017-Nov-15 15:00N 34°13' E 135°09'0 0.0
2017-Nov-15 14:30N 34°13' E 135°09'0 0.0
2017-Nov-15 14:00N 34°13' E 135°09'0 0.0
2017-Nov-15 13:30N 34°13' E 135°09'0 0.0
2017-Nov-15 13:00N 34°13' E 135°09'0 0.0
2017-Nov-15 12:30N 34°13' E 135°09'0 0.0
2017-Nov-15 12:00N 34°13' E 135°09'0 0.0
2017-Nov-15 11:27N 34°13' E 135°09'0 0.0
2017-Nov-15 11:00N 34°13' E 135°09'0 0.0
2017-Nov-15 10:30N 34°13' E 135°09'0 0.0
2017-Nov-15 10:00N 34°13' E 135°09'0 0.0
2017-Nov-15 09:30N 34°13' E 135°09'0 0.0
2017-Nov-15 09:00N 34°13' E 135°09'0 0.0
2017-Nov-15 08:30N 34°13' E 135°09'0 0.0
2017-Nov-15 08:00N 34°13' E 135°09'0 0.0
2017-Nov-15 07:30N 34°13' E 135°09'0 0.0
2017-Nov-15 07:00N 34°13' E 135°09'0 0.0
2017-Nov-15 06:30N 34°13' E 135°09'0 0.0
2017-Nov-15 06:00N 34°13' E 135°09'0 0.0
2017-Nov-15 05:30N 34°13' E 135°09'0 0.0
2017-Nov-15 05:00N 34°13' E 135°09'0 0.0
2017-Nov-15 04:30N 34°13' E 135°09'0 0.0
2017-Nov-15 04:00N 34°13' E 135°09'6 2.9
2017-Nov-15 01:53N 34°07' E 135°06'4 1.3
2017-Nov-14 22:40N 34°12' E 135°07'1 8.0
2017-Nov-14 22:30N 34°13' E 135°08'  

Dump ship's entire track history